CheckWX is a tool to help pilots better visualize weather data.  It is not intended as a substitute for an official pre-flight weather briefing.

21:53:11 UTC

C09 METAR
Morris Municipal - James R Washburn Field Airport
Morris, Illinois, USA
Current

18 mins ago

KC09 162135Z AUTO 32006KT 10SM SCT047 BKN050 11/02 A2998 RMK AO2 T01130019
Observed
Oct-16 @ 21:35 UTC
Wind
  • 320° at 6 KTS
Visibility
10 SM
Flight Rules
VFR
Cloud Levels
  • Scattered at 4,700' AGL
  • Broken at 5,000' AGL
Temperature
11°C / 52°F
Dewpoint
C / 36°F
Humidity
54%
Altimeter
29.98" Hg
Pressure
1015.22 hPa
Previous

38 mins ago

KC09 162115Z AUTO 30014G21KT 10SM BKN050 12/02 A2997 RMK AO2 T01180019
Observed
Oct-16 @ 21:15 UTC
Wind
  • 300° at 14 KTS
  • Gusting to 21 KTS
Visibility
10 SM
Flight Rules
VFR
Cloud Levels
  • Broken at 5,000' AGL
Temperature
12°C / 54°F
Dewpoint
C / 36°F
Humidity
51%
Altimeter
29.97" Hg
Pressure
1014.92 hPa
Previous

58 mins ago

KC09 162055Z AUTO 32008G20KT 10SM BKN050 12/02 A2997 RMK AO2 T01170016
Observed
Oct-16 @ 20:55 UTC
Wind
  • 320° at 8 KTS
  • Gusting to 20 KTS
Visibility
10 SM
Flight Rules
VFR
Cloud Levels
  • Broken at 5,000' AGL
Temperature
12°C / 54°F
Dewpoint
C / 36°F
Humidity
51%
Altimeter
29.97" Hg
Pressure
1014.92 hPa